sensor_id;sensor_type;location;lat;lon;timestamp;P1;durP1;ratioP1;P2;durP2;ratioP2
62584;SDS011;48643;51.670;5.808;2023-04-24T00:01:07;7.47;;;3.00;;
62584;SDS011;48643;51.670;5.808;2023-04-24T00:03:35;4.15;;;2.97;;
62584;SDS011;48643;51.670;5.808;2023-04-24T00:06:02;3.95;;;2.97;;
62584;SDS011;48643;51.670;5.808;2023-04-24T00:08:29;3.42;;;2.80;;
62584;SDS011;48643;51.670;5.808;2023-04-24T00:10:56;4.20;;;2.90;;
62584;SDS011;48643;51.670;5.808;2023-04-24T00:13:23;4.82;;;2.72;;
62584;SDS011;48643;51.670;5.808;2023-04-24T00:15:50;3.25;;;2.70;;
62584;SDS011;48643;51.670;5.808;2023-04-24T00:18:17;4.03;;;2.63;;
62584;SDS011;48643;51.670;5.808;2023-04-24T00:20:44;4.80;;;2.83;;
62584;SDS011;48643;51.670;5.808;2023-04-24T00:23:10;3.28;;;2.80;;
62584;SDS011;48643;51.670;5.808;2023-04-24T00:25:38;3.42;;;2.55;;
62584;SDS011;48643;51.670;5.808;2023-04-24T00:28:05;4.05;;;2.92;;
62584;SDS011;48643;51.670;5.808;2023-04-24T00:30:31;3.72;;;2.70;;
62584;SDS011;48643;51.670;5.808;2023-04-24T00:32:58;4.70;;;3.03;;
62584;SDS011;48643;51.670;5.808;2023-04-24T00:35:25;3.63;;;2.95;;
62584;SDS011;48643;51.670;5.808;2023-04-24T00:37:52;3.60;;;2.90;;
62584;SDS011;48643;51.670;5.808;2023-04-24T00:40:19;3.92;;;2.88;;
62584;SDS011;48643;51.670;5.808;2023-04-24T00:42:46;4.20;;;2.70;;
62584;SDS011;48643;51.670;5.808;2023-04-24T00:45:12;4.15;;;2.95;;
62584;SDS011;48643;51.670;5.808;2023-04-24T00:47:40;4.80;;;3.38;;
62584;SDS011;48643;51.670;5.808;2023-04-24T00:50:08;6.05;;;3.65;;
62584;SDS011;48643;51.670;5.808;2023-04-24T00:52:35;4.65;;;3.38;;
62584;SDS011;48643;51.670;5.808;2023-04-24T00:55:03;4.72;;;3.55;;
62584;SDS011;48643;51.670;5.808;2023-04-24T00:57:31;4.82;;;3.50;;
62584;SDS011;48643;51.670;5.808;2023-04-24T00:59:58;6.97;;;4.03;;
62584;SDS011;48643;51.670;5.808;2023-04-24T01:02:25;5.43;;;3.85;;
62584;SDS011;48643;51.670;5.808;2023-04-24T01:04:52;5.32;;;3.58;;
62584;SDS011;48643;51.670;5.808;2023-04-24T01:07:19;8.15;;;4.20;;
62584;SDS011;48643;51.670;5.808;2023-04-24T01:09:47;6.43;;;4.00;;
62584;SDS011;48643;51.670;5.808;2023-04-24T01:12:17;6.43;;;4.15;;
62584;SDS011;48643;51.670;5.808;2023-04-24T01:14:44;6.10;;;4.10;;
62584;SDS011;48643;51.670;5.808;2023-04-24T01:17:14;8.77;;;4.20;;
62584;SDS011;48643;51.670;5.808;2023-04-24T01:19:41;7.53;;;4.00;;
62584;SDS011;48643;51.670;5.808;2023-04-24T01:22:12;8.50;;;4.43;;
62584;SDS011;48643;51.670;5.808;2023-04-24T01:24:41;8.07;;;4.80;;
62584;SDS011;48643;51.670;5.808;2023-04-24T01:27:10;6.88;;;4.30;;
62584;SDS011;48643;51.670;5.808;2023-04-24T01:29:38;5.45;;;4.13;;
62584;SDS011;48643;51.670;5.808;2023-04-24T01:32:05;7.97;;;4.68;;
62584;SDS011;48643;51.670;5.808;2023-04-24T01:34:32;7.38;;;4.65;;
62584;SDS011;48643;51.670;5.808;2023-04-24T01:37:00;7.07;;;4.65;;
62584;SDS011;48643;51.670;5.808;2023-04-24T01:39:26;8.60;;;4.50;;
62584;SDS011;48643;51.670;5.808;2023-04-24T01:41:55;8.60;;;4.55;;
62584;SDS011;48643;51.670;5.808;2023-04-24T01:44:22;6.63;;;4.38;;
62584;SDS011;48643;51.670;5.808;2023-04-24T01:46:49;8.70;;;4.82;;
62584;SDS011;48643;51.670;5.808;2023-04-24T01:49:17;8.75;;;4.85;;
62584;SDS011;48643;51.670;5.808;2023-04-24T01:51:44;8.40;;;5.13;;
62584;SDS011;48643;51.670;5.808;2023-04-24T01:54:11;8.82;;;4.60;;
62584;SDS011;48643;51.670;5.808;2023-04-24T01:56:41;7.10;;;4.50;;
62584;SDS011;48643;51.670;5.808;2023-04-24T01:59:12;8.77;;;4.80;;
62584;SDS011;48643;51.670;5.808;2023-04-24T02:01:39;7.97;;;5.05;;
62584;SDS011;48643;51.670;5.808;2023-04-24T02:04:06;7.55;;;5.07;;
62584;SDS011;48643;51.670;5.808;2023-04-24T02:06:34;9.20;;;5.57;;
62584;SDS011;48643;51.670;5.808;2023-04-24T02:09:01;9.70;;;4.70;;
62584;SDS011;48643;51.670;5.808;2023-04-24T02:11:29;8.38;;;5.15;;
62584;SDS011;48643;51.670;5.808;2023-04-24T02:13:56;9.45;;;5.30;;
62584;SDS011;48643;51.670;5.808;2023-04-24T02:16:23;9.05;;;5.50;;
62584;SDS011;48643;51.670;5.808;2023-04-24T02:18:51;8.45;;;5.30;;
62584;SDS011;48643;51.670;5.808;2023-04-24T02:21:17;10.75;;;5.85;;
62584;SDS011;48643;51.670;5.808;2023-04-24T02:23:44;9.50;;;5.78;;
62584;SDS011;48643;51.670;5.808;2023-04-24T02:26:11;11.10;;;5.43;;
62584;SDS011;48643;51.670;5.808;2023-04-24T02:28:38;10.75;;;5.68;;
62584;SDS011;48643;51.670;5.808;2023-04-24T02:31:06;9.38;;;5.60;;
62584;SDS011;48643;51.670;5.808;2023-04-24T02:33:33;8.45;;;5.40;;
62584;SDS011;48643;51.670;5.808;2023-04-24T02:36:00;8.50;;;5.97;;
62584;SDS011;48643;51.670;5.808;2023-04-24T02:38:27;10.00;;;6.10;;
62584;SDS011;48643;51.670;5.808;2023-04-24T02:40:54;10.57;;;7.20;;
62584;SDS011;48643;51.670;5.808;2023-04-24T02:43:21;10.00;;;6.57;;
62584;SDS011;48643;51.670;5.808;2023-04-24T02:45:49;9.82;;;6.57;;
62584;SDS011;48643;51.670;5.808;2023-04-24T02:48:16;10.98;;;6.72;;
62584;SDS011;48643;51.670;5.808;2023-04-24T02:50:43;11.75;;;6.95;;
62584;SDS011;48643;51.670;5.808;2023-04-24T02:53:10;10.82;;;6.68;;
62584;SDS011;48643;51.670;5.808;2023-04-24T02:55:37;9.93;;;6.78;;
62584;SDS011;48643;51.670;5.808;2023-04-24T02:58:04;10.88;;;6.78;;
62584;SDS011;48643;51.670;5.808;2023-04-24T03:00:32;9.27;;;6.63;;
62584;SDS011;48643;51.670;5.808;2023-04-24T03:02:59;10.98;;;6.97;;
62584;SDS011;48643;51.670;5.808;2023-04-24T03:05:26;12.45;;;10.05;;
62584;SDS011;48643;51.670;5.808;2023-04-24T03:07:53;11.00;;;8.35;;
62584;SDS011;48643;51.670;5.808;2023-04-24T03:10:20;13.15;;;8.05;;
62584;SDS011;48643;51.670;5.808;2023-04-24T03:12:48;11.38;;;8.35;;
62584;SDS011;48643;51.670;5.808;2023-04-24T03:15:17;11.07;;;7.50;;
62584;SDS011;48643;51.670;5.808;2023-04-24T03:17:44;10.80;;;7.47;;
62584;SDS011;48643;51.670;5.808;2023-04-24T03:20:11;11.38;;;8.00;;
62584;SDS011;48643;51.670;5.808;2023-04-24T03:22:38;11.13;;;6.80;;
62584;SDS011;48643;51.670;5.808;2023-04-24T03:25:07;11.95;;;7.30;;
62584;SDS011;48643;51.670;5.808;2023-04-24T03:27:36;9.35;;;6.72;;
62584;SDS011;48643;51.670;5.808;2023-04-24T03:30:21;10.48;;;6.65;;
62584;SDS011;48643;51.670;5.808;2023-04-24T03:32:54;10.18;;;7.10;;
62584;SDS011;48643;51.670;5.808;2023-04-24T03:35:25;9.40;;;6.90;;
62584;SDS011;48643;51.670;5.808;2023-04-24T03:37:53;12.18;;;7.18;;
62584;SDS011;48643;51.670;5.808;2023-04-24T03:40:38;10.93;;;7.10;;
62584;SDS011;48643;51.670;5.808;2023-04-24T03:43:17;10.10;;;6.55;;
62584;SDS011;48643;51.670;5.808;2023-04-24T03:45:44;12.98;;;7.40;;
62584;SDS011;48643;51.670;5.808;2023-04-24T03:48:12;10.23;;;6.65;;
62584;SDS011;48643;51.670;5.808;2023-04-24T03:50:39;10.32;;;7.13;;
62584;SDS011;48643;51.670;5.808;2023-04-24T03:53:09;11.25;;;6.75;;
62584;SDS011;48643;51.670;5.808;2023-04-24T03:55:39;13.23;;;7.45;;
62584;SDS011;48643;51.670;5.808;2023-04-24T03:58:06;10.00;;;6.82;;
62584;SDS011;48643;51.670;5.808;2023-04-24T04:00:33;10.68;;;6.85;;
62584;SDS011;48643;51.670;5.808;2023-04-24T04:03:20;13.30;;;7.32;;
62584;SDS011;48643;51.670;5.808;2023-04-24T04:05:48;10.02;;;6.88;;
62584;SDS011;48643;51.670;5.808;2023-04-24T04:08:15;10.48;;;6.70;;
62584;SDS011;48643;51.670;5.808;2023-04-24T04:10:42;9.88;;;6.68;;
62584;SDS011;48643;51.670;5.808;2023-04-24T04:13:09;12.05;;;6.80;;
62584;SDS011;48643;51.670;5.808;2023-04-24T04:15:36;9.45;;;6.35;;
62584;SDS011;48643;51.670;5.808;2023-04-24T04:18:03;11.07;;;6.90;;
62584;SDS011;48643;51.670;5.808;2023-04-24T04:20:30;11.43;;;6.63;;
62584;SDS011;48643;51.670;5.808;2023-04-24T04:22:57;11.40;;;6.65;;
62584;SDS011;48643;51.670;5.808;2023-04-24T04:25:35;9.40;;;6.60;;
62584;SDS011;48643;51.670;5.808;2023-04-24T04:28:02;12.07;;;6.68;;
62584;SDS011;48643;51.670;5.808;2023-04-24T04:30:29;11.80;;;6.18;;
62584;SDS011;48643;51.670;5.808;2023-04-24T04:33:01;11.73;;;6.40;;
62584;SDS011;48643;51.670;5.808;2023-04-24T04:35:29;8.70;;;6.20;;
62584;SDS011;48643;51.670;5.808;2023-04-24T04:37:57;10.27;;;6.40;;
62584;SDS011;48643;51.670;5.808;2023-04-24T04:40:45;11.05;;;6.70;;
62584;SDS011;48643;51.670;5.808;2023-04-24T04:43:13;14.73;;;6.90;;
62584;SDS011;48643;51.670;5.808;2023-04-24T04:45:47;11.23;;;6.10;;
62584;SDS011;48643;51.670;5.808;2023-04-24T04:48:33;10.40;;;6.35;;
62584;SDS011;48643;51.670;5.808;2023-04-24T04:51:03;10.73;;;6.55;;
62584;SDS011;48643;51.670;5.808;2023-04-24T04:53:31;10.35;;;6.53;;
62584;SDS011;48643;51.670;5.808;2023-04-24T04:55:58;10.82;;;6.20;;
62584;SDS011;48643;51.670;5.808;2023-04-24T04:58:32;9.85;;;6.25;;
62584;SDS011;48643;51.670;5.808;2023-04-24T05:01:00;12.93;;;6.45;;
62584;SDS011;48643;51.670;5.808;2023-04-24T05:03:31;9.82;;;6.13;;
62584;SDS011;48643;51.670;5.808;2023-04-24T05:06:05;10.50;;;5.97;;
62584;SDS011;48643;51.670;5.808;2023-04-24T05:08:36;9.68;;;5.72;;
62584;SDS011;48643;51.670;5.808;2023-04-24T05:11:06;9.57;;;6.07;;
62584;SDS011;48643;51.670;5.808;2023-04-24T05:13:33;7.90;;;5.78;;
62584;SDS011;48643;51.670;5.808;2023-04-24T05:16:23;10.73;;;5.93;;
62584;SDS011;48643;51.670;5.808;2023-04-24T05:18:52;8.05;;;5.63;;
62584;SDS011;48643;51.670;5.808;2023-04-24T05:21:25;7.75;;;5.50;;
62584;SDS011;48643;51.670;5.808;2023-04-24T05:23:53;7.63;;;5.47;;
62584;SDS011;48643;51.670;5.808;2023-04-24T05:26:34;9.45;;;5.57;;
62584;SDS011;48643;51.670;5.808;2023-04-24T05:29:03;6.93;;;5.20;;
62584;SDS011;48643;51.670;5.808;2023-04-24T05:31:30;8.63;;;5.25;;
62584;SDS011;48643;51.670;5.808;2023-04-24T05:33:57;10.10;;;5.20;;
62584;SDS011;48643;51.670;5.808;2023-04-24T05:36:24;10.20;;;5.30;;
62584;SDS011;48643;51.670;5.808;2023-04-24T05:38:51;8.25;;;4.90;;
62584;SDS011;48643;51.670;5.808;2023-04-24T05:41:19;9.80;;;4.97;;
62584;SDS011;48643;51.670;5.808;2023-04-24T05:43:45;7.05;;;4.85;;
62584;SDS011;48643;51.670;5.808;2023-04-24T05:46:12;7.80;;;4.47;;
62584;SDS011;48643;51.670;5.808;2023-04-24T05:48:39;5.68;;;4.32;;
62584;SDS011;48643;51.670;5.808;2023-04-24T05:51:06;7.88;;;4.50;;
62584;SDS011;48643;51.670;5.808;2023-04-24T05:53:33;6.55;;;4.50;;
62584;SDS011;48643;51.670;5.808;2023-04-24T05:55:59;6.55;;;4.60;;
62584;SDS011;48643;51.670;5.808;2023-04-24T05:58:26;7.90;;;4.97;;
62584;SDS011;48643;51.670;5.808;2023-04-24T06:00:53;7.75;;;4.45;;
62584;SDS011;48643;51.670;5.808;2023-04-24T06:03:21;7.40;;;4.55;;
62584;SDS011;48643;51.670;5.808;2023-04-24T06:05:49;7.30;;;4.68;;
62584;SDS011;48643;51.670;5.808;2023-04-24T06:08:17;5.90;;;4.25;;
62584;SDS011;48643;51.670;5.808;2023-04-24T06:10:45;6.77;;;4.37;;
62584;SDS011;48643;51.670;5.808;2023-04-24T06:13:12;8.32;;;4.30;;
62584;SDS011;48643;51.670;5.808;2023-04-24T06:15:47;8.50;;;4.40;;
62584;SDS011;48643;51.670;5.808;2023-04-24T06:18:24;6.13;;;4.43;;
62584;SDS011;48643;51.670;5.808;2023-04-24T06:20:51;5.65;;;4.10;;
62584;SDS011;48643;51.670;5.808;2023-04-24T06:23:18;9.10;;;4.78;;
62584;SDS011;48643;51.670;5.808;2023-04-24T06:25:46;5.68;;;4.40;;
62584;SDS011;48643;51.670;5.808;2023-04-24T06:28:13;5.10;;;4.13;;
62584;SDS011;48643;51.670;5.808;2023-04-24T06:30:40;5.13;;;4.13;;
62584;SDS011;48643;51.670;5.808;2023-04-24T06:33:07;7.75;;;4.20;;
62584;SDS011;48643;51.670;5.808;2023-04-24T06:35:45;4.82;;;3.88;;
62584;SDS011;48643;51.670;5.808;2023-04-24T06:38:12;3.90;;;3.50;;
62584;SDS011;48643;51.670;5.808;2023-04-24T06:40:38;5.20;;;3.75;;
62584;SDS011;48643;51.670;5.808;2023-04-24T06:43:05;4.10;;;3.30;;
62584;SDS011;48643;51.670;5.808;2023-04-24T06:45:32;4.15;;;3.30;;
62584;SDS011;48643;51.670;5.808;2023-04-24T06:47:59;5.45;;;3.20;;
62584;SDS011;48643;51.670;5.808;2023-04-24T06:50:26;8.02;;;3.00;;
62584;SDS011;48643;51.670;5.808;2023-04-24T06:52:52;4.22;;;3.10;;
62584;SDS011;48643;51.670;5.808;2023-04-24T06:55:19;4.28;;;3.00;;
62584;SDS011;48643;51.670;5.808;2023-04-24T06:57:46;4.07;;;3.13;;
62584;SDS011;48643;51.670;5.808;2023-04-24T07:00:13;3.80;;;2.92;;
62584;SDS011;48643;51.670;5.808;2023-04-24T07:02:40;3.92;;;2.80;;
62584;SDS011;48643;51.670;5.808;2023-04-24T07:05:07;6.78;;;3.13;;
62584;SDS011;48643;51.670;5.808;2023-04-24T07:07:34;3.50;;;2.80;;
62584;SDS011;48643;51.670;5.808;2023-04-24T07:12:31;4.20;;;2.60;;
62584;SDS011;48643;51.670;5.808;2023-04-24T07:14:58;3.05;;;2.50;;
62584;SDS011;48643;51.670;5.808;2023-04-24T07:17:26;3.72;;;2.70;;
62584;SDS011;48643;51.670;5.808;2023-04-24T07:19:53;3.20;;;2.58;;
62584;SDS011;48643;51.670;5.808;2023-04-24T07:22:20;2.92;;;2.53;;
62584;SDS011;48643;51.670;5.808;2023-04-24T07:24:47;3.85;;;2.40;;
62584;SDS011;48643;51.670;5.808;2023-04-24T07:27:13;3.05;;;2.40;;
62584;SDS011;48643;51.670;5.808;2023-04-24T07:29:41;3.15;;;2.40;;
62584;SDS011;48643;51.670;5.808;2023-04-24T07:32:08;4.75;;;2.30;;
62584;SDS011;48643;51.670;5.808;2023-04-24T07:34:35;2.80;;;2.30;;
62584;SDS011;48643;51.670;5.808;2023-04-24T07:37:02;4.63;;;2.20;;
62584;SDS011;48643;51.670;5.808;2023-04-24T07:39:29;4.97;;;2.58;;
62584;SDS011;48643;51.670;5.808;2023-04-24T07:41:56;3.25;;;2.35;;
62584;SDS011;48643;51.670;5.808;2023-04-24T07:44:24;3.65;;;2.50;;
62584;SDS011;48643;51.670;5.808;2023-04-24T07:46:52;3.03;;;2.58;;
62584;SDS011;48643;51.670;5.808;2023-04-24T07:49:19;3.78;;;2.92;;
62584;SDS011;48643;51.670;5.808;2023-04-24T07:51:45;5.30;;;3.00;;
62584;SDS011;48643;51.670;5.808;2023-04-24T07:54:12;5.13;;;3.10;;
62584;SDS011;48643;51.670;5.808;2023-04-24T07:56:40;5.43;;;3.17;;
62584;SDS011;48643;51.670;5.808;2023-04-24T07:59:09;6.22;;;3.30;;
62584;SDS011;48643;51.670;5.808;2023-04-24T08:01:36;3.55;;;3.10;;
62584;SDS011;48643;51.670;5.808;2023-04-24T08:04:05;5.60;;;3.20;;
62584;SDS011;48643;51.670;5.808;2023-04-24T08:06:32;8.77;;;3.10;;
62584;SDS011;48643;51.670;5.808;2023-04-24T08:08:59;4.00;;;3.10;;
62584;SDS011;48643;51.670;5.808;2023-04-24T08:11:26;5.10;;;3.50;;
62584;SDS011;48643;51.670;5.808;2023-04-24T08:13:53;4.63;;;3.08;;
62584;SDS011;48643;51.670;5.808;2023-04-24T08:16:21;4.50;;;3.10;;
62584;SDS011;48643;51.670;5.808;2023-04-24T08:18:50;9.65;;;3.65;;
62584;SDS011;48643;51.670;5.808;2023-04-24T08:21:17;5.50;;;3.20;;
62584;SDS011;48643;51.670;5.808;2023-04-24T08:23:45;6.00;;;3.67;;
62584;SDS011;48643;51.670;5.808;2023-04-24T08:26:12;8.80;;;3.65;;
62584;SDS011;48643;51.670;5.808;2023-04-24T08:28:39;6.30;;;3.33;;
62584;SDS011;48643;51.670;5.808;2023-04-24T08:31:06;7.63;;;3.70;;
62584;SDS011;48643;51.670;5.808;2023-04-24T08:33:35;4.65;;;3.40;;
62584;SDS011;48643;51.670;5.808;2023-04-24T08:36:02;5.32;;;3.50;;
62584;SDS011;48643;51.670;5.808;2023-04-24T08:38:30;6.30;;;3.58;;
62584;SDS011;48643;51.670;5.808;2023-04-24T08:40:58;7.50;;;3.83;;
62584;SDS011;48643;51.670;5.808;2023-04-24T08:43:26;4.57;;;3.25;;
62584;SDS011;48643;51.670;5.808;2023-04-24T08:45:55;6.82;;;3.80;;
62584;SDS011;48643;51.670;5.808;2023-04-24T08:48:23;7.05;;;3.78;;
62584;SDS011;48643;51.670;5.808;2023-04-24T08:50:57;8.82;;;3.60;;
62584;SDS011;48643;51.670;5.808;2023-04-24T08:53:25;6.35;;;3.47;;
62584;SDS011;48643;51.670;5.808;2023-04-24T08:55:52;5.22;;;3.22;;
62584;SDS011;48643;51.670;5.808;2023-04-24T08:58:21;9.18;;;3.70;;
62584;SDS011;48643;51.670;5.808;2023-04-24T09:00:50;4.90;;;3.22;;
62584;SDS011;48643;51.670;5.808;2023-04-24T09:03:17;10.13;;;3.60;;
62584;SDS011;48643;51.670;5.808;2023-04-24T09:05:44;8.27;;;3.58;;
62584;SDS011;48643;51.670;5.808;2023-04-24T09:08:14;12.07;;;4.22;;
62584;SDS011;48643;51.670;5.808;2023-04-24T09:10:41;13.70;;;3.80;;
62584;SDS011;48643;51.670;5.808;2023-04-24T09:13:08;14.15;;;3.80;;
62584;SDS011;48643;51.670;5.808;2023-04-24T09:15:39;9.98;;;3.80;;
62584;SDS011;48643;51.670;5.808;2023-04-24T09:18:07;11.02;;;3.47;;
62584;SDS011;48643;51.670;5.808;2023-04-24T09:20:34;16.50;;;4.03;;
62584;SDS011;48643;51.670;5.808;2023-04-24T09:23:02;13.75;;;3.38;;
62584;SDS011;48643;51.670;5.808;2023-04-24T09:25:32;9.73;;;3.47;;
62584;SDS011;48643;51.670;5.808;2023-04-24T09:28:02;17.17;;;3.60;;
62584;SDS011;48643;51.670;5.808;2023-04-24T09:30:30;12.57;;;3.45;;
62584;SDS011;48643;51.670;5.808;2023-04-24T09:35:56;9.45;;;3.70;;
62584;SDS011;48643;51.670;5.808;2023-04-24T09:38:32;10.97;;;3.33;;
62584;SDS011;48643;51.670;5.808;2023-04-24T09:41:03;11.85;;;3.40;;
62584;SDS011;48643;51.670;5.808;2023-04-24T09:43:32;8.45;;;3.35;;
62584;SDS011;48643;51.670;5.808;2023-04-24T09:46:03;6.53;;;3.38;;
62584;SDS011;48643;51.670;5.808;2023-04-24T09:48:35;12.52;;;3.58;;
62584;SDS011;48643;51.670;5.808;2023-04-24T09:51:04;11.52;;;3.53;;
62584;SDS011;48643;51.670;5.808;2023-04-24T09:53:33;6.60;;;3.35;;
62584;SDS011;48643;51.670;5.808;2023-04-24T09:56:07;8.75;;;3.30;;
62584;SDS011;48643;51.670;5.808;2023-04-24T09:58:35;11.10;;;3.47;;
62584;SDS011;48643;51.670;5.808;2023-04-24T10:01:02;8.00;;;3.40;;
62584;SDS011;48643;51.670;5.808;2023-04-24T10:03:30;6.47;;;3.22;;
62584;SDS011;48643;51.670;5.808;2023-04-24T10:06:03;8.32;;;3.30;;
62584;SDS011;48643;51.670;5.808;2023-04-24T10:08:36;6.78;;;3.55;;
62584;SDS011;48643;51.670;5.808;2023-04-24T10:11:04;10.82;;;2.38;;
62584;SDS011;48643;51.670;5.808;2023-04-24T10:13:31;8.35;;;2.83;;
62584;SDS011;48643;51.670;5.808;2023-04-24T10:15:58;7.75;;;2.63;;
62584;SDS011;48643;51.670;5.808;2023-04-24T10:18:27;8.18;;;2.80;;
62584;SDS011;48643;51.670;5.808;2023-04-24T10:20:55;8.73;;;2.75;;
62584;SDS011;48643;51.670;5.808;2023-04-24T10:23:22;8.80;;;2.70;;
62584;SDS011;48643;51.670;5.808;2023-04-24T10:25:51;11.53;;;2.97;;
62584;SDS011;48643;51.670;5.808;2023-04-24T10:28:19;7.90;;;2.70;;
62584;SDS011;48643;51.670;5.808;2023-04-24T10:30:45;5.53;;;2.42;;
62584;SDS011;48643;51.670;5.808;2023-04-24T10:33:12;10.05;;;2.60;;
62584;SDS011;48643;51.670;5.808;2023-04-24T10:35:41;6.57;;;2.55;;
62584;SDS011;48643;51.670;5.808;2023-04-24T10:38:11;6.00;;;2.65;;
62584;SDS011;48643;51.670;5.808;2023-04-24T10:43:06;7.22;;;2.50;;
62584;SDS011;48643;51.670;5.808;2023-04-24T10:45:35;10.35;;;2.97;;
62584;SDS011;48643;51.670;5.808;2023-04-24T10:48:06;9.15;;;2.60;;
62584;SDS011;48643;51.670;5.808;2023-04-24T10:50:47;5.72;;;2.20;;
62584;SDS011;48643;51.670;5.808;2023-04-24T10:53:18;8.50;;;2.40;;
62584;SDS011;48643;51.670;5.808;2023-04-24T10:59:03;6.85;;;2.30;;
62584;SDS011;48643;51.670;5.808;2023-04-24T11:01:31;6.47;;;2.40;;
62584;SDS011;48643;51.670;5.808;2023-04-24T11:04:02;7.55;;;2.42;;
62584;SDS011;48643;51.670;5.808;2023-04-24T11:06:36;5.50;;;2.30;;
62584;SDS011;48643;51.670;5.808;2023-04-24T11:09:04;6.45;;;2.08;;
62584;SDS011;48643;51.670;5.808;2023-04-24T11:11:32;5.55;;;2.10;;
62584;SDS011;48643;51.670;5.808;2023-04-24T11:14:01;7.80;;;2.40;;
62584;SDS011;48643;51.670;5.808;2023-04-24T11:16:43;5.72;;;2.20;;
62584;SDS011;48643;51.670;5.808;2023-04-24T11:24:21;5.72;;;2.42;;
62584;SDS011;48643;51.670;5.808;2023-04-24T11:27:38;4.82;;;2.10;;
62584;SDS011;48643;51.670;5.808;2023-04-24T11:29:45;8.60;;;2.28;;
62584;SDS011;48643;51.670;5.808;2023-04-24T11:32:17;4.53;;;1.92;;
62584;SDS011;48643;51.670;5.808;2023-04-24T11:34:51;4.88;;;1.95;;
62584;SDS011;48643;51.670;5.808;2023-04-24T11:37:22;5.65;;;2.00;;
62584;SDS011;48643;51.670;5.808;2023-04-24T11:40:03;4.25;;;1.88;;
62584;SDS011;48643;51.670;5.808;2023-04-24T11:42:34;4.97;;;2.05;;
62584;SDS011;48643;51.670;5.808;2023-04-24T11:45:06;5.32;;;2.05;;
62584;SDS011;48643;51.670;5.808;2023-04-24T11:47:37;4.70;;;1.70;;
62584;SDS011;48643;51.670;5.808;2023-04-24T11:50:05;4.97;;;1.85;;
62584;SDS011;48643;51.670;5.808;2023-04-24T11:52:37;4.78;;;1.90;;
62584;SDS011;48643;51.670;5.808;2023-04-24T11:55:48;4.97;;;1.77;;
62584;SDS011;48643;51.670;5.808;2023-04-24T11:57:56;4.88;;;1.80;;
62584;SDS011;48643;51.670;5.808;2023-04-24T12:00:26;7.80;;;2.00;;
62584;SDS011;48643;51.670;5.808;2023-04-24T12:03:04;4.25;;;1.67;;
62584;SDS011;48643;51.670;5.808;2023-04-24T12:05:32;3.97;;;1.73;;
62584;SDS011;48643;51.670;5.808;2023-04-24T12:08:01;6.00;;;1.88;;
62584;SDS011;48643;51.670;5.808;2023-04-24T12:10:29;4.05;;;1.67;;
62584;SDS011;48643;51.670;5.808;2023-04-24T12:12:57;4.28;;;1.80;;
62584;SDS011;48643;51.670;5.808;2023-04-24T12:15:26;7.13;;;1.73;;
62584;SDS011;48643;51.670;5.808;2023-04-24T12:17:54;4.75;;;1.60;;
62584;SDS011;48643;51.670;5.808;2023-04-24T12:20:26;5.90;;;1.80;;
62584;SDS011;48643;51.670;5.808;2023-04-24T12:22:58;4.88;;;1.75;;
62584;SDS011;48643;51.670;5.808;2023-04-24T12:25:26;2.72;;;1.63;;
62584;SDS011;48643;51.670;5.808;2023-04-24T12:30:32;3.38;;;1.70;;
62584;SDS011;48643;51.670;5.808;2023-04-24T12:33:00;3.75;;;1.80;;
62584;SDS011;48643;51.670;5.808;2023-04-24T12:35:29;3.72;;;1.63;;
62584;SDS011;48643;51.670;5.808;2023-04-24T12:38:07;4.53;;;1.58;;
62584;SDS011;48643;51.670;5.808;2023-04-24T12:40:37;2.80;;;1.67;;
62584;SDS011;48643;51.670;5.808;2023-04-24T12:45:41;3.20;;;1.65;;
62584;SDS011;48643;51.670;5.808;2023-04-24T12:48:08;4.63;;;1.80;;
62584;SDS011;48643;51.670;5.808;2023-04-24T12:50:35;5.13;;;1.70;;
62584;SDS011;48643;51.670;5.808;2023-04-24T12:53:02;6.85;;;1.90;;
62584;SDS011;48643;51.670;5.808;2023-04-24T12:55:29;4.47;;;1.50;;
62584;SDS011;48643;51.670;5.808;2023-04-24T12:57:56;2.83;;;1.50;;
62584;SDS011;48643;51.670;5.808;2023-04-24T13:00:25;3.42;;;1.88;;
62584;SDS011;48643;51.670;5.808;2023-04-24T13:02:52;4.88;;;1.63;;
62584;SDS011;48643;51.670;5.808;2023-04-24T13:05:19;4.05;;;1.70;;
62584;SDS011;48643;51.670;5.808;2023-04-24T13:07:45;5.25;;;1.90;;
62584;SDS011;48643;51.670;5.808;2023-04-24T13:10:12;4.88;;;1.90;;
62584;SDS011;48643;51.670;5.808;2023-04-24T13:12:39;4.15;;;1.75;;
62584;SDS011;48643;51.670;5.808;2023-04-24T13:15:06;4.78;;;1.80;;
62584;SDS011;48643;51.670;5.808;2023-04-24T13:17:33;5.28;;;1.90;;
62584;SDS011;48643;51.670;5.808;2023-04-24T13:20:00;4.40;;;1.67;;
62584;SDS011;48643;51.670;5.808;2023-04-24T13:22:27;5.03;;;1.80;;
62584;SDS011;48643;51.670;5.808;2023-04-24T13:24:54;3.22;;;1.60;;
62584;SDS011;48643;51.670;5.808;2023-04-24T13:27:22;3.25;;;1.60;;
62584;SDS011;48643;51.670;5.808;2023-04-24T13:29:49;4.30;;;1.80;;
62584;SDS011;48643;51.670;5.808;2023-04-24T13:32:17;3.53;;;1.70;;
62584;SDS011;48643;51.670;5.808;2023-04-24T13:34:43;4.63;;;1.80;;
62584;SDS011;48643;51.670;5.808;2023-04-24T13:37:10;7.47;;;2.20;;
62584;SDS011;48643;51.670;5.808;2023-04-24T13:39:37;4.28;;;1.50;;
62584;SDS011;48643;51.670;5.808;2023-04-24T13:42:04;3.60;;;1.63;;
62584;SDS011;48643;51.670;5.808;2023-04-24T13:44:31;7.75;;;1.70;;
62584;SDS011;48643;51.670;5.808;2023-04-24T13:46:58;4.88;;;1.70;;
62584;SDS011;48643;51.670;5.808;2023-04-24T13:49:26;4.80;;;1.77;;
62584;SDS011;48643;51.670;5.808;2023-04-24T13:51:53;3.70;;;1.83;;
62584;SDS011;48643;51.670;5.808;2023-04-24T13:54:21;4.97;;;1.70;;
62584;SDS011;48643;51.670;5.808;2023-04-24T13:56:49;4.07;;;1.85;;
62584;SDS011;48643;51.670;5.808;2023-04-24T13:59:16;4.05;;;1.73;;
62584;SDS011;48643;51.670;5.808;2023-04-24T14:01:43;4.07;;;1.70;;
62584;SDS011;48643;51.670;5.808;2023-04-24T14:04:11;2.25;;;1.30;;
62584;SDS011;48643;51.670;5.808;2023-04-24T14:06:38;4.03;;;1.77;;
62584;SDS011;48643;51.670;5.808;2023-04-24T14:09:05;5.90;;;1.70;;
62584;SDS011;48643;51.670;5.808;2023-04-24T14:11:33;3.47;;;1.83;;
62584;SDS011;48643;51.670;5.808;2023-04-24T14:14:00;4.13;;;1.73;;
62584;SDS011;48643;51.670;5.808;2023-04-24T14:16:27;4.18;;;1.80;;
62584;SDS011;48643;51.670;5.808;2023-04-24T14:18:55;5.97;;;1.90;;
62584;SDS011;48643;51.670;5.808;2023-04-24T14:21:22;6.55;;;1.85;;
62584;SDS011;48643;51.670;5.808;2023-04-24T14:23:49;5.47;;;1.80;;
62584;SDS011;48643;51.670;5.808;2023-04-24T14:26:16;2.95;;;1.38;;
62584;SDS011;48643;51.670;5.808;2023-04-24T14:28:43;7.32;;;1.95;;
62584;SDS011;48643;51.670;5.808;2023-04-24T14:31:09;6.10;;;1.77;;
62584;SDS011;48643;51.670;5.808;2023-04-24T14:33:36;6.97;;;1.55;;
62584;SDS011;48643;51.670;5.808;2023-04-24T14:36:03;8.73;;;1.88;;
62584;SDS011;48643;51.670;5.808;2023-04-24T14:38:31;4.40;;;1.47;;
62584;SDS011;48643;51.670;5.808;2023-04-24T14:40:58;4.43;;;1.67;;
62584;SDS011;48643;51.670;5.808;2023-04-24T14:43:33;4.18;;;1.90;;
62584;SDS011;48643;51.670;5.808;2023-04-24T14:46:02;3.55;;;1.70;;
62584;SDS011;48643;51.670;5.808;2023-04-24T14:48:29;3.83;;;1.70;;
62584;SDS011;48643;51.670;5.808;2023-04-24T14:50:56;2.70;;;1.45;;
62584;SDS011;48643;51.670;5.808;2023-04-24T14:53:23;5.18;;;1.88;;
62584;SDS011;48643;51.670;5.808;2023-04-24T14:55:50;5.97;;;1.90;;
62584;SDS011;48643;51.670;5.808;2023-04-24T14:58:17;4.13;;;1.80;;
62584;SDS011;48643;51.670;5.808;2023-04-24T15:00:44;6.78;;;2.10;;
62584;SDS011;48643;51.670;5.808;2023-04-24T15:03:10;5.90;;;2.00;;
62584;SDS011;48643;51.670;5.808;2023-04-24T15:05:37;4.80;;;2.00;;
62584;SDS011;48643;51.670;5.808;2023-04-24T15:08:06;5.20;;;1.80;;
62584;SDS011;48643;51.670;5.808;2023-04-24T15:10:33;6.22;;;1.90;;
62584;SDS011;48643;51.670;5.808;2023-04-24T15:12:59;4.38;;;1.90;;
62584;SDS011;48643;51.670;5.808;2023-04-24T15:15:26;3.65;;;1.88;;